createdAt,value
2022-10-23T00:01:46.854Z,52.00
2022-10-23T00:04:25.275Z,52.90
2022-10-23T00:07:00.605Z,59.70
2022-10-23T00:09:36.444Z,63.10
2022-10-23T00:12:11.783Z,54.00
2022-10-23T00:14:47.033Z,56.20
2022-10-23T00:17:22.251Z,58.00
2022-10-23T00:19:57.561Z,63.40
2022-10-23T00:22:32.802Z,54.40
2022-10-23T00:25:09.541Z,55.50
2022-10-23T00:27:44.986Z,54.10
2022-10-23T00:30:20.424Z,47.70
2022-10-23T00:32:55.643Z,40.90
2022-10-23T00:35:30.930Z,44.10
2022-10-23T00:38:06.131Z,40.90
2022-10-23T00:40:42.407Z,41.70
2022-10-23T00:43:22.221Z,44.20
2022-10-23T00:45:58.282Z,53.50
2022-10-23T00:48:33.546Z,42.80
2022-10-23T00:51:08.898Z,42.30
2022-10-23T00:53:48.002Z,43.00
2022-10-23T00:58:59.331Z,42.40
2022-10-23T01:01:35.437Z,43.10
2022-10-23T01:04:11.351Z,50.80
2022-10-23T01:06:54.143Z,40.70
2022-10-23T01:09:30.892Z,37.80
2022-10-23T01:12:11.856Z,45.40
2022-10-23T01:14:50.600Z,43.80
2022-10-23T01:17:28.834Z,47.80
2022-10-23T01:20:12.043Z,46.50
2022-10-23T01:22:55.539Z,47.10
2022-10-23T01:25:36.926Z,61.60
2022-10-23T01:28:17.383Z,74.50
2022-10-23T01:30:55.194Z,58.10
2022-10-23T01:33:34.045Z,91.60
2022-10-23T01:36:12.031Z,58.00
2022-10-23T01:38:51.015Z,52.70
2022-10-23T01:41:34.898Z,57.00
2022-10-23T01:44:13.104Z,49.70
2022-10-23T01:46:50.815Z,53.50
2022-10-23T01:49:26.480Z,50.80
2022-10-23T01:52:07.598Z,48.80
2022-10-23T01:54:44.635Z,47.70
2022-10-23T01:57:21.917Z,44.60
2022-10-23T01:59:59.586Z,65.10
2022-10-23T02:02:37.298Z,48.40
2022-10-23T02:05:15.392Z,57.10
2022-10-23T02:07:51.734Z,66.10
2022-10-23T02:10:32.521Z,76.00
2022-10-23T02:13:10.371Z,72.60
2022-10-23T02:15:49.742Z,67.90
2022-10-23T02:18:31.043Z,64.70
2022-10-23T02:21:08.872Z,54.20
2022-10-23T02:23:46.592Z,58.40
2022-10-23T02:26:23.282Z,53.70
2022-10-23T02:29:01.060Z,53.80
2022-10-23T02:31:36.410Z,58.70
2022-10-23T02:34:11.742Z,51.80
2022-10-23T02:36:47.469Z,59.50
2022-10-23T02:39:23.665Z,63.10
2022-10-23T02:42:01.252Z,66.00
2022-10-23T02:44:44.488Z,67.20
2022-10-23T02:47:26.433Z,65.40
2022-10-23T02:50:08.466Z,53.10
2022-10-23T02:52:50.431Z,61.60
2022-10-23T02:55:31.327Z,58.10
2022-10-23T02:58:10.599Z,63.00
2022-10-23T03:00:53.451Z,46.30
2022-10-23T03:03:30.833Z,48.90
2022-10-23T03:06:06.374Z,51.40
2022-10-23T03:08:44.365Z,53.10
2022-10-23T03:11:19.684Z,45.20
2022-10-23T03:13:55.185Z,50.10
2022-10-23T03:16:30.386Z,49.90
2022-10-23T03:19:05.770Z,50.30
2022-10-23T03:21:41.260Z,47.90
2022-10-23T03:24:16.959Z,48.80
2022-10-23T03:26:52.773Z,46.70
2022-10-23T03:32:07.514Z,45.30
2022-10-23T03:34:42.784Z,53.40
2022-10-23T03:37:18.031Z,49.70
2022-10-23T03:39:53.298Z,60.00
2022-10-23T03:42:28.866Z,54.10
2022-10-23T03:45:04.336Z,58.10
2022-10-23T03:47:41.501Z,58.00
2022-10-23T03:50:17.480Z,56.20
2022-10-23T03:52:52.767Z,55.30
2022-10-23T03:55:28.540Z,62.50
2022-10-23T03:58:03.826Z,56.50
2022-10-23T04:00:39.234Z,53.50
2022-10-23T04:03:16.365Z,60.90
2022-10-23T04:05:52.360Z,54.50
2022-10-23T04:08:30.285Z,53.30
2022-10-23T04:11:06.210Z,63.30
2022-10-23T04:13:50.829Z,49.10
2022-10-23T04:16:26.317Z,50.50
2022-10-23T04:19:01.539Z,46.50
2022-10-23T04:21:38.161Z,48.10
2022-10-23T04:24:13.421Z,42.10
2022-10-23T04:26:48.782Z,42.60
2022-10-23T04:29:24.928Z,49.20
2022-10-23T04:32:00.430Z,51.40
2022-10-23T04:34:36.860Z,53.30
2022-10-23T04:37:12.498Z,53.60
2022-10-23T04:39:47.847Z,44.90
2022-10-23T04:42:23.275Z,53.70
2022-10-23T04:44:58.609Z,55.50
2022-10-23T04:47:34.150Z,48.90
2022-10-23T04:50:11.109Z,49.90
2022-10-23T04:53:06.578Z,53.30
2022-10-23T04:56:00.968Z,49.30
2022-10-23T04:59:02.443Z,51.60
2022-10-23T05:01:38.619Z,45.40
2022-10-23T05:04:15.781Z,50.90
2022-10-23T05:07:09.882Z,51.10
2022-10-23T05:09:58.496Z,47.30
2022-10-23T05:12:47.919Z,48.80
2022-10-23T05:15:23.247Z,41.60
2022-10-23T05:18:01.347Z,44.30
2022-10-23T05:20:37.626Z,46.80
2022-10-23T05:23:14.880Z,50.00
2022-10-23T05:25:59.509Z,50.90
2022-10-23T05:28:35.574Z,53.10
2022-10-23T05:31:11.690Z,50.40
2022-10-23T05:33:49.022Z,48.90
2022-10-23T05:36:25.132Z,58.50
2022-10-23T05:39:05.292Z,53.70
2022-10-23T05:41:40.848Z,65.20
2022-10-23T05:44:16.167Z,52.80
2022-10-23T05:47:10.022Z,50.90
2022-10-23T05:50:05.989Z,50.60
2022-10-23T05:52:55.744Z,59.80
2022-10-23T05:55:51.891Z,63.00
2022-10-23T05:58:47.205Z,63.90
2022-10-23T06:01:38.665Z,69.50
2022-10-23T06:04:15.146Z,69.60
2022-10-23T06:07:01.035Z,85.40
2022-10-23T06:09:37.200Z,93.00
2022-10-23T06:12:12.574Z,85.70
2022-10-23T06:14:51.948Z,81.20
2022-10-23T06:17:28.555Z,79.30
2022-10-23T06:20:03.815Z,71.10
2022-10-23T06:22:42.654Z,75.40
2022-10-23T06:25:30.954Z,79.00
2022-10-23T06:28:06.647Z,87.80
2022-10-23T06:30:41.953Z,81.30
2022-10-23T06:33:17.423Z,74.10
2022-10-23T06:35:52.621Z,73.40
2022-10-23T06:38:28.002Z,72.50
2022-10-23T06:41:04.993Z,70.00
2022-10-23T06:43:44.579Z,71.00
2022-10-23T06:46:49.233Z,79.10
2022-10-23T06:49:56.954Z,78.70
2022-10-23T06:52:46.455Z,70.10
2022-10-23T06:55:24.219Z,72.40
2022-10-23T06:58:00.098Z,68.30
2022-10-23T07:00:35.528Z,72.50
2022-10-23T07:03:12.303Z,75.70
2022-10-23T07:05:48.057Z,69.60
2022-10-23T07:08:23.996Z,75.80
2022-10-23T07:11:04.034Z,76.50
2022-10-23T07:13:40.611Z,72.00
2022-10-23T07:16:25.076Z,73.20
2022-10-23T07:19:01.345Z,75.40
2022-10-23T07:21:36.697Z,65.40
2022-10-23T07:27:42.985Z,60.40
2022-10-23T07:30:18.873Z,65.60
2022-10-23T07:33:00.409Z,62.90
2022-10-23T07:35:54.274Z,66.50
2022-10-23T07:38:35.716Z,60.60
2022-10-23T07:41:12.437Z,59.10
2022-10-23T07:43:48.038Z,58.50
2022-10-23T07:46:23.968Z,60.00
2022-10-23T07:48:59.771Z,60.20
2022-10-23T07:51:35.117Z,46.90
2022-10-23T07:54:12.528Z,48.40
2022-10-23T07:57:08.154Z,50.00
2022-10-23T08:00:02.907Z,44.20
2022-10-23T08:02:38.645Z,46.30
2022-10-23T08:05:14.730Z,42.80
2022-10-23T08:07:57.387Z,43.50
2022-10-23T08:16:27.728Z,37.00
2022-10-23T08:19:13.130Z,33.00
2022-10-23T08:21:49.206Z,31.40
2022-10-23T08:24:25.237Z,33.40
2022-10-23T08:27:00.805Z,32.20
2022-10-23T08:29:37.797Z,36.20
2022-10-23T08:32:13.365Z,28.50
2022-10-23T08:35:07.305Z,28.50
2022-10-23T08:37:42.935Z,34.80
2022-10-23T08:40:20.877Z,28.50
2022-10-23T08:43:19.926Z,32.50
2022-10-23T08:46:13.370Z,23.70
2022-10-23T08:49:32.417Z,22.20
2022-10-23T08:52:21.733Z,17.60
2022-10-23T08:55:05.545Z,18.70
2022-10-23T08:57:44.627Z,15.00
2022-10-23T09:00:20.586Z,17.80
2022-10-23T09:02:56.653Z,13.50
2022-10-23T09:05:36.079Z,14.70
2022-10-23T09:08:17.871Z,16.40
2022-10-23T09:11:02.498Z,15.20
2022-10-23T09:13:54.638Z,13.10
2022-10-23T09:16:39.141Z,10.50
2022-10-23T09:19:17.076Z,23.60
2022-10-23T09:21:52.486Z,10.80
2022-10-23T09:24:31.686Z,19.40
2022-10-23T09:27:07.139Z,20.50
2022-10-23T09:29:48.424Z,9.80
2022-10-23T09:32:33.757Z,13.30
2022-10-23T09:35:21.967Z,14.00
2022-10-23T09:37:58.009Z,10.40
2022-10-23T09:40:37.925Z,13.80
2022-10-23T09:43:16.437Z,15.80
2022-10-23T09:45:59.209Z,10.20
2022-10-23T09:48:35.320Z,12.80
2022-10-23T09:51:18.899Z,9.90
2022-10-23T09:53:56.532Z,10.60
2022-10-23T09:56:34.649Z,9.60
2022-10-23T09:59:22.581Z,11.70
2022-10-23T10:01:59.027Z,10.50
2022-10-23T10:04:57.998Z,7.80
2022-10-23T10:07:36.009Z,8.50
2022-10-23T10:10:16.917Z,10.80
2022-10-23T10:12:58.396Z,10.10
2022-10-23T10:15:39.015Z,9.70
2022-10-23T10:18:19.857Z,8.00
2022-10-23T10:21:00.540Z,12.40
2022-10-23T10:23:42.540Z,14.20
2022-10-23T10:26:22.961Z,9.50
2022-10-23T10:29:15.324Z,9.30
2022-10-23T10:31:57.734Z,7.80
2022-10-23T10:34:38.093Z,8.50
2022-10-23T10:37:21.308Z,9.50
2022-10-23T10:39:59.937Z,9.60
2022-10-23T10:42:43.577Z,9.50
2022-10-23T10:45:27.120Z,8.00
2022-10-23T10:48:13.616Z,8.60
2022-10-23T10:51:15.455Z,8.80
2022-10-23T10:54:01.849Z,11.20
2022-10-23T10:56:39.975Z,7.60
2022-10-23T10:59:17.370Z,8.50
2022-10-23T11:01:57.632Z,9.00
2022-10-23T11:04:46.086Z,7.80
2022-10-23T11:07:35.761Z,6.80
2022-10-23T11:10:16.884Z,10.30
2022-10-23T11:12:52.594Z,6.40
2022-10-23T11:15:29.254Z,6.90
2022-10-23T11:18:06.215Z,7.80
2022-10-23T11:20:52.902Z,7.90
2022-10-23T11:23:35.991Z,8.40
2022-10-23T11:26:19.755Z,7.00
2022-10-23T11:29:04.479Z,8.20
2022-10-23T11:31:44.220Z,7.40
2022-10-23T11:34:24.539Z,4.40
2022-10-23T11:37:01.483Z,10.90
2022-10-23T11:39:37.902Z,9.00
2022-10-23T11:42:30.730Z,5.50
2022-10-23T11:45:26.867Z,5.70
2022-10-23T11:48:03.156Z,5.10
2022-10-23T11:50:53.573Z,8.40
2022-10-23T11:53:39.745Z,6.70
2022-10-23T11:56:31.235Z,5.40
2022-10-23T11:59:20.222Z,5.70
2022-10-23T12:01:56.590Z,6.80
2022-10-23T12:04:39.534Z,5.20
2022-10-23T12:07:22.179Z,5.60
2022-10-23T12:09:59.084Z,5.20
2022-10-23T12:12:35.734Z,7.10
2022-10-23T12:15:22.213Z,5.80
2022-10-23T12:18:08.820Z,6.30
2022-10-23T12:20:49.214Z,6.10
2022-10-23T12:23:30.296Z,4.60
2022-10-23T12:26:13.684Z,7.40
2022-10-23T12:28:51.854Z,5.20
2022-10-23T12:34:05.547Z,6.40
2022-10-23T12:36:45.485Z,8.80
2022-10-23T12:39:31.067Z,6.10
2022-10-23T12:42:07.884Z,8.70
2022-10-23T12:44:43.163Z,8.50
2022-10-23T12:47:19.838Z,7.50
2022-10-23T12:49:55.262Z,7.60
2022-10-23T12:52:33.396Z,6.30
2022-10-23T12:55:14.870Z,6.90
2022-10-23T12:57:50.464Z,7.50
2022-10-23T13:00:26.165Z,4.80
2022-10-23T13:03:02.119Z,4.30
2022-10-23T13:05:38.327Z,7.70
2022-10-23T13:08:13.601Z,5.30
2022-10-23T13:10:59.431Z,6.20
2022-10-23T13:13:37.138Z,6.20
2022-10-23T13:16:16.391Z,6.70
2022-10-23T13:18:52.163Z,5.70
2022-10-23T13:21:28.779Z,7.10
2022-10-23T13:24:04.107Z,7.20
2022-10-23T13:26:45.418Z,5.30
2022-10-23T13:29:23.272Z,4.90
2022-10-23T13:31:58.987Z,5.80
2022-10-23T13:34:34.258Z,5.20
2022-10-23T13:37:23.310Z,5.60
2022-10-23T13:40:02.352Z,7.00
2022-10-23T13:42:37.736Z,5.40
2022-10-23T13:45:17.269Z,4.60
2022-10-23T13:47:52.791Z,6.20
2022-10-23T13:50:28.179Z,6.00
2022-10-23T13:53:05.388Z,6.80
2022-10-23T13:55:41.695Z,6.00
2022-10-23T13:58:17.006Z,5.50
2022-10-23T14:00:53.645Z,6.10
2022-10-23T14:03:28.926Z,14.80
2022-10-23T14:06:04.348Z,11.90
2022-10-23T14:08:39.673Z,13.10
2022-10-23T14:11:16.083Z,7.90
2022-10-23T14:13:52.446Z,9.40
2022-10-23T14:16:28.021Z,16.70
2022-10-23T14:19:03.503Z,11.30
2022-10-23T14:21:38.921Z,8.40
2022-10-23T14:24:14.828Z,11.10
2022-10-23T14:26:50.150Z,13.20
2022-10-23T14:29:25.597Z,8.90
2022-10-23T14:32:00.877Z,10.30
2022-10-23T14:34:36.392Z,7.00
2022-10-23T14:37:11.738Z,9.30
2022-10-23T14:39:49.918Z,12.90
2022-10-23T14:42:26.968Z,18.10
2022-10-23T14:45:05.336Z,15.00
2022-10-23T14:47:40.803Z,17.60
2022-10-23T14:50:16.631Z,17.10
2022-10-23T14:52:52.061Z,12.00
2022-10-23T14:55:27.476Z,10.20
2022-10-23T14:58:02.871Z,10.60
2022-10-23T15:00:39.460Z,15.10
2022-10-23T15:03:14.690Z,13.10
2022-10-23T15:05:49.962Z,21.30
2022-10-23T15:08:25.500Z,20.60
2022-10-23T15:11:02.413Z,16.30
2022-10-23T15:13:37.725Z,12.50
2022-10-23T15:16:13.025Z,11.80
2022-10-23T15:18:48.386Z,8.90
2022-10-23T15:21:23.769Z,12.90
2022-10-23T15:24:01.593Z,9.20
2022-10-23T15:26:38.447Z,11.00
2022-10-23T15:29:15.024Z,12.40
2022-10-23T15:31:58.735Z,10.80
2022-10-23T15:34:34.164Z,10.40
2022-10-23T15:37:10.931Z,13.90
2022-10-23T15:39:46.486Z,12.50
2022-10-23T15:42:21.898Z,13.60
2022-10-23T15:44:57.238Z,15.60
2022-10-23T15:47:32.607Z,15.20
2022-10-23T15:50:08.874Z,21.10
2022-10-23T15:52:44.931Z,17.30
2022-10-23T15:55:21.171Z,19.60
2022-10-23T15:57:59.542Z,23.40
2022-10-23T16:00:36.801Z,26.40
2022-10-23T16:03:12.177Z,26.60
2022-10-23T16:05:47.606Z,20.30
2022-10-23T16:08:24.181Z,22.00
2022-10-23T16:11:00.143Z,24.50
2022-10-23T16:13:35.550Z,20.50
2022-10-23T16:16:11.337Z,17.20
2022-10-23T16:18:47.048Z,17.60
2022-10-23T16:21:23.134Z,17.80
2022-10-23T16:23:59.768Z,18.50
2022-10-23T16:26:35.757Z,50.90
2022-10-23T16:29:12.666Z,41.30
2022-10-23T16:31:48.082Z,31.10
2022-10-23T16:34:23.558Z,32.70
2022-10-23T16:36:59.129Z,28.20
2022-10-23T16:39:55.081Z,25.20
2022-10-23T16:42:49.245Z,23.20
2022-10-23T16:45:41.641Z,24.70
2022-10-23T16:48:17.004Z,20.80
2022-10-23T16:50:52.320Z,23.70
2022-10-23T16:53:29.203Z,30.50
2022-10-23T16:56:06.019Z,24.00
2022-10-23T16:58:41.992Z,26.10
2022-10-23T17:01:19.395Z,23.60
2022-10-23T17:03:56.875Z,22.30
2022-10-23T17:06:33.163Z,24.30
2022-10-23T17:09:08.774Z,23.30
2022-10-23T17:11:45.580Z,24.90
2022-10-23T17:14:25.174Z,26.90
2022-10-23T17:17:02.081Z,24.80
2022-10-23T17:19:46.071Z,24.80
2022-10-23T17:22:22.075Z,25.40
2022-10-23T17:24:57.379Z,28.40
2022-10-23T17:27:32.810Z,32.80
2022-10-23T17:30:12.485Z,26.00
2022-10-23T17:32:48.153Z,24.60
2022-10-23T17:35:23.414Z,30.40
2022-10-23T17:37:58.873Z,26.40
2022-10-23T17:40:34.511Z,28.20
2022-10-23T17:43:09.854Z,29.20
2022-10-23T17:45:46.351Z,24.30
2022-10-23T17:48:21.773Z,24.60
2022-10-23T17:51:04.413Z,23.70
2022-10-23T17:53:41.027Z,27.00
2022-10-23T17:56:19.597Z,27.60
2022-10-23T17:58:56.326Z,31.10
2022-10-23T18:01:32.084Z,28.50
2022-10-23T18:04:08.752Z,33.00
2022-10-23T18:06:45.659Z,29.10
2022-10-23T18:09:21.442Z,34.50
2022-10-23T18:11:56.946Z,37.50
2022-10-23T18:14:37.277Z,32.40
2022-10-23T18:17:13.018Z,31.80
2022-10-23T18:19:50.758Z,40.70
2022-10-23T18:22:26.132Z,40.30
2022-10-23T18:25:01.860Z,40.20
2022-10-23T18:27:39.886Z,38.80
2022-10-23T18:30:15.726Z,40.30
2022-10-23T18:32:51.180Z,46.10
2022-10-23T18:35:26.799Z,46.00
2022-10-23T18:38:03.534Z,42.60
2022-10-23T18:40:39.696Z,41.40
2022-10-23T18:43:31.279Z,40.60
2022-10-23T18:46:11.085Z,45.90
2022-10-23T18:48:47.022Z,43.30
2022-10-23T18:51:23.620Z,44.20
2022-10-23T18:54:00.960Z,52.40
2022-10-23T18:56:38.392Z,48.90
2022-10-23T18:59:14.610Z,54.00
2022-10-23T19:01:50.051Z,43.20
2022-10-23T19:04:25.606Z,45.70
2022-10-23T19:07:01.301Z,41.80
2022-10-23T19:09:37.017Z,40.10
2022-10-23T19:14:47.768Z,45.20
2022-10-23T19:17:25.067Z,46.90
2022-10-23T19:20:02.654Z,37.60
2022-10-23T19:22:40.439Z,48.10
2022-10-23T19:25:16.698Z,48.90
2022-10-23T19:27:53.605Z,41.30
2022-10-23T19:30:29.113Z,46.30
2022-10-23T19:33:04.510Z,42.40
2022-10-23T19:35:39.843Z,40.70
2022-10-23T19:38:15.176Z,35.90
2022-10-23T19:40:50.428Z,36.70
2022-10-23T19:43:25.723Z,37.50
2022-10-23T19:46:06.317Z,35.70
2022-10-23T19:48:45.801Z,34.60
2022-10-23T19:51:21.229Z,37.60
2022-10-23T19:53:56.874Z,39.20
2022-10-23T19:56:32.383Z,35.70
2022-10-23T19:59:08.263Z,40.90
2022-10-23T20:01:46.390Z,35.30
2022-10-23T20:04:24.597Z,33.30
2022-10-23T20:07:00.266Z,38.50
2022-10-23T20:09:35.849Z,41.30
2022-10-23T20:12:13.758Z,35.20
2022-10-23T20:14:49.299Z,42.50
2022-10-23T20:17:25.204Z,37.40
2022-10-23T20:20:00.535Z,39.40
2022-10-23T20:22:39.480Z,36.40
2022-10-23T20:25:17.163Z,39.10
2022-10-23T20:27:52.448Z,39.40
2022-10-23T20:30:27.756Z,38.60
2022-10-23T20:33:03.033Z,41.40
2022-10-23T20:35:42.023Z,39.80
2022-10-23T20:38:17.417Z,36.80
2022-10-23T20:40:52.692Z,39.30
2022-10-23T20:43:28.238Z,35.40
2022-10-23T20:46:06.066Z,40.20
2022-10-23T20:48:42.065Z,39.40
2022-10-23T20:51:18.776Z,35.80
2022-10-23T20:53:55.514Z,36.90
2022-10-23T20:56:32.427Z,34.10
2022-10-23T20:59:08.971Z,34.80
2022-10-23T21:01:45.369Z,36.40
2022-10-23T21:04:22.194Z,41.30
2022-10-23T21:07:12.882Z,35.40
2022-10-23T21:09:48.465Z,37.20
2022-10-23T21:12:23.775Z,30.10
2022-10-23T21:14:59.016Z,30.80
2022-10-23T21:17:38.803Z,34.00
2022-10-23T21:20:14.348Z,30.70
2022-10-23T21:22:49.780Z,33.20
2022-10-23T21:25:25.709Z,29.70
2022-10-23T21:28:01.532Z,35.80
2022-10-23T21:30:41.326Z,33.40
2022-10-23T21:33:19.557Z,28.90
2022-10-23T21:36:04.717Z,31.00
2022-10-23T21:38:47.936Z,26.90
2022-10-23T21:41:24.376Z,30.80
2022-10-23T21:44:00.941Z,33.00
2022-10-23T21:46:36.753Z,30.30
2022-10-23T21:49:12.874Z,39.00
2022-10-23T21:51:48.613Z,32.60
2022-10-23T21:54:23.980Z,34.30
2022-10-23T21:56:59.469Z,34.70
2022-10-23T21:59:39.233Z,36.20
2022-10-23T22:02:14.969Z,34.30
2022-10-23T22:04:50.459Z,34.00
2022-10-23T22:07:26.090Z,37.30
2022-10-23T22:10:01.605Z,36.80
2022-10-23T22:12:37.173Z,36.00
2022-10-23T22:15:12.984Z,39.20
2022-10-23T22:17:48.487Z,42.30
2022-10-23T22:20:23.813Z,38.50
2022-10-23T22:22:59.106Z,46.20
2022-10-23T22:25:34.386Z,42.30
2022-10-23T22:28:10.055Z,44.60
2022-10-23T22:30:45.295Z,39.40
2022-10-23T22:33:20.636Z,39.40
2022-10-23T22:36:00.842Z,39.00
2022-10-23T22:38:36.342Z,40.20
2022-10-23T22:41:11.928Z,49.20
2022-10-23T22:43:47.230Z,44.40
2022-10-23T22:46:22.595Z,44.30
2022-10-23T22:48:58.652Z,40.80
2022-10-23T22:51:34.509Z,38.80
2022-10-23T22:54:09.756Z,52.70
2022-10-23T22:56:45.038Z,50.00
2022-10-23T22:59:20.356Z,49.00
2022-10-23T23:01:55.620Z,41.30
2022-10-23T23:04:38.879Z,44.90
2022-10-23T23:07:15.020Z,40.20
2022-10-23T23:09:50.462Z,47.10
2022-10-23T23:12:25.768Z,39.60
2022-10-23T23:15:01.098Z,40.00
2022-10-23T23:17:36.422Z,42.50
2022-10-23T23:20:12.148Z,41.00
2022-10-23T23:22:47.496Z,42.70
2022-10-23T23:25:22.799Z,39.50
2022-10-23T23:27:58.413Z,39.20
2022-10-23T23:30:33.810Z,41.40
2022-10-23T23:33:09.232Z,40.80
2022-10-23T23:35:45.170Z,36.80
2022-10-23T23:38:20.470Z,35.70
2022-10-23T23:40:55.670Z,41.10
2022-10-23T23:43:31.336Z,37.60
2022-10-23T23:46:06.861Z,33.50
2022-10-23T23:48:47.610Z,36.40
2022-10-23T23:51:24.023Z,29.90
2022-10-23T23:53:59.325Z,40.30
2022-10-23T23:56:34.770Z,36.90
2022-10-23T23:59:10.116Z,37.80
